Time;durP1;ratioP1;P1;durP2;ratioP2;P2;SDS_P1;SDS_P2;PMS_P1;PMS_P2;Temp;Humidity;BMP_temperature;BMP_pressure;BME280_temperature;BME280_humidity;BME280_pressure;Samples;Min_cycle;Max_cycle;Signal;HPM_P1;HPM_P2
2022/04/09 00:00:58;;;;;;;7.93;3.10;;;;;;;7.07;98.09;98508.16;10433106;28;20213;-66
2022/04/09 00:06:03;;;;;;;7.30;2.57;;;;;;;7.10;99.16;98498.59;10462961;28;20217;-64
2022/04/09 00:11:08;;;;;;;7.37;3.00;;;;;;;7.12;99.65;98490.81;10462674;28;20223;-70
2022/04/09 00:16:13;;;;;;;6.63;3.03;;;;;;;7.12;100.00;98478.78;10463835;28;20246;-66
2022/04/09 00:21:16;;;;;;;6.63;3.37;;;;;;;7.07;100.00;98484.94;10448351;28;20213;-67
2022/04/09 00:26:19;;;;;;;6.57;3.00;;;;;;;6.95;100.00;98474.03;10420330;28;20221;-66
2022/04/09 00:31:24;;;;;;;7.23;4.10;;;;;;;6.94;100.00;98467.22;10421165;28;20305;-68
2022/04/09 00:36:28;;;;;;;8.80;3.47;;;;;;;6.84;100.00;98465.75;10420577;28;20220;-69
2022/04/09 00:41:31;;;;;;;7.23;3.93;;;;;;;6.88;100.00;98458.78;10419194;28;20217;-67
2022/04/09 00:46:36;;;;;;;8.80;3.37;;;;;;;6.94;100.00;98456.03;10420451;28;20218;-69
2022/04/09 00:51:41;;;;;;;8.67;3.50;;;;;;;6.93;100.00;98447.47;10419282;28;20213;-69
2022/04/09 00:56:46;;;;;;;7.37;3.77;;;;;;;6.89;100.00;98458.75;10420046;28;20221;-70
2022/04/09 01:01:53;;;;;;;9.43;4.10;;;;;;;6.84;100.00;98454.59;10420031;28;20552;-69
2022/04/09 01:06:59;;;;;;;7.97;3.60;;;;;;;6.84;100.00;98462.31;10419678;28;20332;-65
2022/04/09 01:12:04;;;;;;;7.37;3.67;;;;;;;6.84;100.00;98465.75;10419866;28;20244;-69
2022/04/09 01:17:08;;;;;;;8.37;3.77;;;;;;;6.86;100.00;98457.97;10419445;28;20237;-66
2022/04/09 01:22:13;;;;;;;9.13;4.20;;;;;;;6.83;100.00;98461.47;10418579;28;20221;-64
2022/04/09 01:27:16;;;;;;;7.43;3.80;;;;;;;6.80;100.00;98469.28;10418581;28;20227;-68
2022/04/09 01:32:20;;;;;;;8.43;3.77;;;;;;;6.72;100.00;98488.41;10418914;28;20217;-66
2022/04/09 01:37:24;;;;;;;6.67;3.90;;;;;;;6.73;100.00;98492.72;10418924;28;20256;-67
2022/04/09 01:42:27;;;;;;;6.70;3.73;;;;;;;6.62;100.00;98480.06;10418458;28;20217;-68
2022/04/09 01:47:31;;;;;;;9.47;3.90;;;;;;;6.54;100.00;98457.97;10418509;28;20275;-68
2022/04/09 01:52:35;;;;;;;8.43;4.20;;;;;;;6.53;100.00;98476.88;10418170;28;20676;-70
2022/04/09 01:57:39;;;;;;;7.63;4.77;;;;;;;6.50;100.00;98475.22;10418707;28;20228;-67
2022/04/09 02:02:43;;;;;;;8.00;4.10;;;;;;;6.47;100.00;98483.00;10418117;28;20287;-69
2022/04/09 02:07:48;;;;;;;8.03;4.70;;;;;;;6.49;100.00;98470.94;10418096;28;20232;-67
2022/04/09 02:12:51;;;;;;;7.90;4.33;;;;;;;6.49;100.00;98463.19;10417502;28;20213;-67
2022/04/09 02:17:55;;;;;;;6.43;4.07;;;;;;;6.51;100.00;98456.28;10417298;28;20548;-68
2022/04/09 02:23:00;;;;;;;9.07;4.40;;;;;;;6.46;100.00;98446.97;10417662;28;20526;-65
2022/04/09 02:28:04;;;;;;;7.53;3.90;;;;;;;6.45;100.00;98446.16;10417139;28;20221;-70
2022/04/09 02:33:07;;;;;;;7.67;4.43;;;;;;;6.43;100.00;98457.34;10417477;28;20296;-69
2022/04/09 02:38:12;;;;;;;8.83;4.27;;;;;;;6.45;100.00;98461.59;10420233;28;20229;-70
2022/04/09 02:43:15;;;;;;;7.23;3.97;;;;;;;6.43;100.00;98454.78;10424445;28;20286;-65
2022/04/09 02:48:19;;;;;;;17.53;10.33;;;;;;;6.41;100.00;98451.38;10422569;28;20229;-68
2022/04/09 02:53:23;;;;;;;7.13;3.60;;;;;;;6.36;100.00;98448.94;10421738;28;20232;-64
2022/04/09 02:58:27;;;;;;;9.53;4.17;;;;;;;6.40;100.00;98468.56;10421578;28;20241;-69
2022/04/09 03:03:30;;;;;;;7.73;3.70;;;;;;;6.41;100.00;98453.97;10421895;28;20526;-69
2022/04/09 03:08:34;;;;;;;8.90;4.37;;;;;;;6.38;100.00;98452.31;10421500;28;20226;-66
2022/04/09 03:13:38;;;;;;;8.73;4.57;;;;;;;6.28;100.00;98468.03;10421567;28;20243;-68
2022/04/09 03:18:41;;;;;;;11.57;4.40;;;;;;;6.33;100.00;98458.47;10420927;28;20238;-66
2022/04/09 03:23:45;;;;;;;6.77;4.10;;;;;;;6.32;100.00;98455.03;10420856;28;20225;-69
2022/04/09 03:28:49;;;;;;;7.83;3.97;;;;;;;6.29;100.00;98470.56;10420855;28;20233;-67
2022/04/09 03:33:53;;;;;;;10.20;4.80;;;;;;;6.23;100.00;98467.28;10420535;28;20224;-68
2022/04/09 03:38:57;;;;;;;7.37;3.70;;;;;;;6.19;100.00;98469.09;10420910;28;20229;-67
2022/04/09 03:44:01;;;;;;;7.33;3.93;;;;;;;6.19;100.00;98463.09;10420868;28;20221;-67
2022/04/09 03:49:04;;;;;;;6.97;3.80;;;;;;;6.15;100.00;98475.19;10418901;28;20225;-68
2022/04/09 03:54:09;;;;;;;7.80;4.10;;;;;;;6.16;100.00;98482.03;10419826;28;20229;-66
2022/04/09 03:59:12;;;;;;;8.00;4.23;;;;;;;6.12;100.00;98483.00;10419459;28;20239;-67
2022/04/09 04:04:15;;;;;;;8.20;3.70;;;;;;;6.06;100.00;98482.28;10420055;28;20209;-65
2022/04/09 04:09:20;;;;;;;6.80;3.97;;;;;;;6.00;100.00;98478.13;10422108;28;20236;-68
2022/04/09 04:14:25;;;;;;;6.53;3.73;;;;;;;6.01;100.00;98484.94;10422819;28;20740;-67
2022/04/09 04:19:29;;;;;;;6.47;3.63;;;;;;;6.01;100.00;98490.09;10421712;28;20684;-72
2022/04/09 04:24:37;;;;;;;7.33;4.23;;;;;;;6.06;100.00;98495.16;10421554;28;20228;-68
2022/04/09 04:29:40;;;;;;;10.27;6.40;;;;;;;6.09;100.00;98501.06;10421420;28;20232;-69
2022/04/09 04:34:43;;;;;;;9.30;4.30;;;;;;;6.09;100.00;98507.97;10421488;28;20224;-70
2022/04/09 04:39:48;;;;;;;7.53;3.73;;;;;;;6.10;100.00;98512.22;10421123;28;20225;-64
2022/04/09 04:44:51;;;;;;;6.43;3.80;;;;;;;6.10;100.00;98520.81;10421699;28;20228;-68
2022/04/09 04:49:54;;;;;;;6.43;3.77;;;;;;;6.10;100.00;98519.94;10420745;28;20214;-65
2022/04/09 04:54:59;;;;;;;6.97;4.00;;;;;;;6.09;100.00;98524.25;10420380;28;20285;-71
2022/04/09 05:00:07;;;;;;;8.33;4.37;;;;;;;6.18;100.00;98533.53;10420223;28;20672;-68
2022/04/09 05:05:11;;;;;;;7.77;4.30;;;;;;;6.23;100.00;98545.41;10420189;28;20217;-67
2022/04/09 05:10:17;;;;;;;7.97;4.70;;;;;;;6.28;100.00;98547.88;10419935;28;20810;-68
2022/04/09 05:15:21;;;;;;;6.90;3.40;;;;;;;6.17;100.00;98561.00;10419785;28;20241;-66
2022/04/09 05:20:24;;;;;;;9.93;6.17;;;;;;;6.05;100.00;98593.88;10420149;28;20222;-67
2022/04/09 05:25:31;;;;;;;6.30;3.50;;;;;;;5.85;100.00;98601.97;10419328;28;20217;-68
2022/04/09 05:30:35;;;;;;;5.90;2.90;;;;;;;5.70;100.00;98597.97;10419180;28;20228;-67
2022/04/09 05:35:38;;;;;;;5.83;2.87;;;;;;;5.72;100.00;98590.22;10421069;28;20233;-68
2022/04/09 05:40:43;;;;;;;6.13;3.53;;;;;;;5.73;100.00;98591.91;10418698;28;20661;-70
2022/04/09 05:45:46;;;;;;;6.40;3.47;;;;;;;5.80;100.00;98603.78;10419262;28;20217;-65
2022/04/09 05:50:49;;;;;;;10.40;3.90;;;;;;;5.85;100.00;98607.13;10418480;28;20225;-69
2022/04/09 05:55:54;;;;;;;8.33;4.40;;;;;;;5.99;100.00;98594.00;10418657;28;20218;-70
2022/04/09 06:01:00;;;;;;;7.43;3.90;;;;;;;6.05;100.00;98593.88;10418513;28;20300;-67
2022/04/09 06:06:03;;;;;;;8.03;3.40;;;;;;;6.02;100.00;98599.94;10417949;28;20227;-68
2022/04/09 06:11:08;;;;;;;5.93;3.13;;;;;;;6.15;100.00;98611.69;11405866;22;20338;-65
2022/04/09 06:16:12;;;;;;;5.47;2.90;;;;;;;6.21;100.00;98611.56;10458268;28;20573;-66
2022/04/09 06:21:15;;;;;;;6.87;2.87;;;;;;;6.17;100.00;98624.53;10458629;28;20236;-70
2022/04/09 06:26:20;;;;;;;6.27;2.90;;;;;;;6.23;100.00;98629.56;10458459;28;20542;-70
2022/04/09 06:31:28;;;;;;;6.80;3.27;;;;;;;6.33;100.00;98628.50;10458033;28;20248;-67
2022/04/09 06:36:32;;;;;;;6.97;3.50;;;;;;;6.37;100.00;98630.97;10459254;28;20213;-66
2022/04/09 06:41:36;;;;;;;7.10;4.50;;;;;;;6.35;100.00;98624.97;10458459;28;20223;-69
2022/04/09 06:46:43;;;;;;;8.27;4.70;;;;;;;6.48;100.00;98626.44;10458156;28;20217;-70
2022/04/09 06:51:47;;;;;;;8.97;4.00;;;;;;;6.65;100.00;98624.34;10458425;28;20228;-68
2022/04/09 06:56:52;;;;;;;10.67;4.17;;;;;;;6.74;100.00;98624.13;10458012;28;20216;-68
2022/04/09 07:01:55;;;;;;;6.50;3.37;;;;;;;6.95;100.00;98626.19;10458238;28;20231;-69
2022/04/09 07:06:59;;;;;;;7.93;3.80;;;;;;;7.12;100.00;98625.81;10458233;28;20219;-70
2022/04/09 07:12:06;;;;;;;6.63;3.40;;;;;;;7.02;100.00;98650.13;10458190;28;20236;-70
2022/04/09 07:17:10;;;;;;;6.27;3.70;;;;;;;7.11;100.00;98655.03;10457720;28;20232;-65
2022/04/09 07:22:13;;;;;;;7.43;3.63;;;;;;;7.04;100.00;98669.81;10457469;28;20549;-69
2022/04/09 07:27:18;;;;;;;9.20;4.60;;;;;;;7.23;100.00;98670.22;10463700;28;20212;-70
2022/04/09 07:32:21;;;;;;;8.67;4.20;;;;;;;7.38;100.00;98685.38;10465281;28;20236;-69
2022/04/09 07:37:25;;;;;;;7.30;3.73;;;;;;;7.30;100.00;98701.94;10465092;28;20220;-68
2022/04/09 07:42:29;;;;;;;7.57;4.53;;;;;;;7.42;100.00;98722.28;10464703;28;20560;-66
2022/04/09 07:47:33;;;;;;;7.63;4.10;;;;;;;7.56;100.00;98723.63;10464647;28;20224;-64
2022/04/09 07:52:37;;;;;;;7.70;4.63;;;;;;;7.69;100.00;98730.19;10464333;28;20686;-69
2022/04/09 07:57:42;;;;;;;7.17;3.83;;;;;;;7.66;100.00;98747.50;10464029;28;20231;-63
2022/04/09 08:02:46;;;;;;;9.53;4.63;;;;;;;7.80;100.00;98764.34;10112766;28;10000614;-65
2022/04/09 08:07:49;;;;;;;11.10;4.80;;;;;;;7.75;100.00;98761.03;10461484;28;20224;-67
2022/04/09 08:12:54;;;;;;;12.53;4.33;;;;;;;7.94;100.00;98771.72;10460626;28;20228;-68
2022/04/09 08:17:58;;;;;;;9.50;4.70;;;;;;;7.99;100.00;98786.25;10459906;28;20555;-66
2022/04/09 08:23:21;;;;;;;9.63;5.20;;;;;;;8.01;100.00;98797.38;10460010;28;20219;-68
2022/04/09 08:28:27;;;;;;;7.10;4.40;;;;;;;8.14;100.00;98798.75;10459591;28;20243;-64
2022/04/09 08:33:31;;;;;;;8.97;5.23;;;;;;;8.42;99.41;98793.75;10459175;28;20547;-66
2022/04/09 08:38:34;;;;;;;41.20;25.33;;;;;;;8.45;97.21;98811.78;10460026;28;20930;-64
2022/04/09 08:43:39;;;;;;;12.47;5.73;;;;;;;8.66;96.73;98813.78;10458941;28;20221;-64
2022/04/09 08:48:47;;;;;;;9.90;5.27;;;;;;;8.75;94.15;98817.88;10459179;28;20303;-69
2022/04/09 08:53:51;;;;;;;11.23;5.63;;;;;;;8.95;90.31;98826.78;10458514;28;20304;-67
2022/04/09 08:58:58;;;;;;;11.23;5.10;;;;;;;8.93;87.51;98823.38;10458368;28;20257;-71
2022/04/09 09:04:02;;;;;;;9.80;4.67;;;;;;;9.01;84.61;98836.09;10458109;28;20568;-62
2022/04/09 09:09:06;;;;;;;10.17;4.27;;;;;;;9.05;85.68;98827.34;10457862;28;20215;-66
2022/04/09 09:14:11;;;;;;;11.23;5.50;;;;;;;9.22;84.33;98822.53;10457785;28;20235;-65
2022/04/09 09:19:14;;;;;;;12.70;5.30;;;;;;;9.38;81.59;98830.69;10457087;28;20244;-65
2022/04/09 09:24:18;;;;;;;11.37;4.87;;;;;;;9.43;82.00;98871.09;10440244;28;20209;-65
2022/04/09 09:29:28;;;;;;;9.77;5.37;;;;;;;9.65;77.73;98887.69;10457205;28;20671;-66
2022/04/09 09:34:32;;;;;;;11.73;6.10;;;;;;;9.56;77.17;98871.59;10456703;28;20180;-66
2022/04/09 09:39:43;;;;;;;10.77;5.67;;;;;;;9.51;80.19;98879.47;10456195;28;20246;-71
2022/04/09 09:44:48;;;;;;;9.60;5.03;;;;;;;9.54;78.54;98888.91;10457699;28;20199;-71
2022/04/09 09:49:56;;;;;;;9.30;5.57;;;;;;;9.97;75.81;98894.50;10455826;28;20197;-66
2022/04/09 09:55:02;;;;;;;13.23;6.57;;;;;;;10.59;74.21;98903.72;10456924;28;20798;-66
2022/04/09 10:00:10;;;;;;;11.80;6.10;;;;;;;10.36;72.70;98907.06;10473203;28;20248;-67
2022/04/09 10:05:14;;;;;;;9.00;5.53;;;;;;;11.00;69.36;98913.53;10475996;28;20227;-66
2022/04/09 10:10:18;;;;;;;12.23;6.77;;;;;;;11.08;68.20;98908.09;10459377;28;20215;-67
2022/04/09 10:15:27;;;;;;;11.50;5.63;;;;;;;11.41;65.48;98918.09;10476120;28;20634;-67
2022/04/09 10:20:31;;;;;;;10.03;5.77;;;;;;;11.28;66.67;98918.59;10442309;28;20307;-65
2022/04/09 10:25:39;;;;;;;12.80;5.53;;;;;;;11.93;63.49;98935.22;10459100;28;20220;-66
2022/04/09 10:30:44;;;;;;;8.80;4.13;;;;;;;11.39;57.23;98956.25;10458563;28;20207;-67
2022/04/09 10:35:48;;;;;;;8.40;4.07;;;;;;;10.45;60.32;98945.69;10106495;28;10000306;-64
2022/04/09 10:41:28;;;;;;;9.80;3.50;;;;;;;10.71;58.91;98950.00;10453714;28;20312;-71
2022/04/09 10:46:43;;;;;;;10.40;4.33;;;;;;;11.06;58.38;98965.22;10455812;28;20541;-67
2022/04/09 10:52:11;;;;;;;10.43;4.03;;;;;;;11.41;56.60;98975.25;10439889;28;20204;-70
2022/04/09 10:57:22;;;;;;;9.33;3.10;;;;;;;11.61;56.61;98984.94;10456368;28;20205;-68
2022/04/09 11:02:31;;;;;;;8.30;2.80;;;;;;;11.87;53.50;99003.06;10463768;28;20224;-68
2022/04/09 11:08:07;;;;;;;45.53;29.60;;;;;;;12.43;54.48;98985.25;10446292;28;20232;-71
2022/04/09 11:13:12;;;;;;;9.03;3.40;;;;;;;12.98;52.64;98982.13;10462727;28;20247;-67
2022/04/09 11:18:17;;;;;;;10.03;3.30;;;;;;;12.71;51.15;98998.88;10462309;28;20203;-69
2022/04/09 11:23:21;;;;;;;7.33;3.17;;;;;;;13.06;49.96;99013.94;10463643;28;20715;-68
2022/04/09 11:28:24;;;;;;;9.57;3.13;;;;;;;13.21;50.92;99009.84;10461667;28;20217;-64
2022/04/09 11:33:29;;;;;;;91.20;54.10;;;;;;;13.74;47.31;99029.22;10462169;28;20235;-66
2022/04/09 11:38:34;;;;;;;7.10;3.57;;;;;;;13.86;47.34;99032.13;10461287;28;20263;-68
2022/04/09 11:43:46;;;;;;;6.70;2.50;;;;;;;14.01;45.59;99048.03;10461513;28;20204;-67
2022/04/09 11:48:59;;;;;;;7.03;2.63;;;;;;;13.59;46.87;99059.44;10444449;28;20670;-65
2022/04/09 11:54:16;;;;;;;4.53;1.90;;;;;;;13.70;46.58;99057.19;10462089;28;20279;-66
2022/04/09 11:59:19;;;;;;;2.77;1.20;;;;;;;13.64;45.04;99060.06;10460716;28;20547;-68
2022/04/09 12:04:24;;;;;;;5.90;1.90;;;;;;;13.58;43.83;99062.94;10460554;28;20203;-67
2022/04/09 12:09:28;;;;;;;5.13;1.77;;;;;;;13.38;44.84;99060.34;10460839;28;20288;-66
2022/04/09 12:14:31;;;;;;;5.23;1.87;;;;;;;14.08;45.15;99078.13;10459972;28;20307;-67
2022/04/09 12:19:37;;;;;;;5.60;2.07;;;;;;;14.60;43.51;99069.66;10459065;28;20227;-67
2022/04/09 12:24:53;;;;;;;6.73;1.80;;;;;;;14.97;41.38;99103.56;10460503;28;20707;-70
2022/04/09 12:29:58;;;;;;;4.83;1.80;;;;;;;13.79;42.67;99095.91;10459737;28;20224;-68
2022/04/09 12:35:07;;;;;;;7.03;2.50;;;;;;;13.00;42.40;99105.31;10459583;28;20219;-67
2022/04/09 12:40:15;;;;;;;4.73;2.00;;;;;;;12.73;42.93;99109.00;10458923;28;20624;-71
2022/04/09 12:45:22;;;;;;;4.37;2.07;;;;;;;12.81;43.44;99127.78;10461708;28;20244;-69
2022/04/09 12:50:28;;;;;;;5.03;1.67;;;;;;;12.03;44.89;99128.97;10462483;28;20286;-66
2022/04/09 12:55:32;;;;;;;5.40;1.63;;;;;;;11.61;45.90;99117.47;10462505;28;20826;-67
2022/04/09 13:00:36;;;;;;;4.83;2.13;;;;;;;11.55;45.05;99107.25;10444162;28;20632;-66
2022/04/09 13:05:41;;;;;;;4.33;1.90;;;;;;;11.51;44.71;99121.25;10461490;28;20212;-67
2022/04/09 13:10:44;;;;;;;7.53;2.70;;;;;;;12.32;43.73;99130.56;10461264;28;20249;-67
2022/04/09 13:15:49;;;;;;;5.20;1.40;;;;;;;12.32;40.27;99156.56;10461770;28;20220;-70
2022/04/09 13:20:54;;;;;;;4.43;1.37;;;;;;;11.97;40.94;99152.63;10460588;28;20563;-66
2022/04/09 13:25:57;;;;;;;5.50;1.83;;;;;;;11.84;43.80;99174.72;10461229;28;20216;-69
2022/04/09 13:31:01;;;;;;;4.57;1.80;;;;;;;11.95;42.30;99172.63;10460686;28;20728;-66
2022/04/09 13:36:06;;;;;;;7.77;1.90;;;;;;;11.72;43.14;99172.53;10460534;28;20664;-68
2022/04/09 13:41:13;;;;;;;5.57;1.80;;;;;;;11.37;43.95;99193.63;10459859;28;20220;-64
2022/04/09 13:46:16;;;;;;;4.60;1.67;;;;;;;11.37;45.09;99184.06;10459963;28;20235;-68
2022/04/09 13:51:21;;;;;;;5.33;1.90;;;;;;;11.54;43.51;99201.72;10460309;28;20297;-69
2022/04/09 13:56:25;;;;;;;4.33;1.80;;;;;;;11.85;43.55;99227.56;10459733;28;20643;-67
2022/04/09 14:01:28;;;;;;;5.97;1.90;;;;;;;12.56;41.78;99218.13;10459289;28;20252;-66
2022/04/09 14:06:33;;;;;;;5.97;2.07;;;;;;;12.61;40.84;99218.81;10442299;28;20275;-67
2022/04/09 14:11:37;;;;;;;5.93;1.93;;;;;;;12.45;40.81;99215.06;10459218;28;20245;-67
2022/04/09 14:16:40;;;;;;;4.30;1.80;;;;;;;12.22;40.94;99220.22;10459067;28;20235;-67
2022/04/09 14:21:46;;;;;;;8.93;2.00;;;;;;;12.14;43.57;99225.69;10459996;28;20693;-70
2022/04/09 14:26:49;;;;;;;4.80;1.83;;;;;;;12.02;42.96;99233.06;10459207;28;20217;-69
2022/04/09 14:31:58;;;;;;;7.43;1.77;;;;;;;12.41;41.68;99226.47;10441662;28;20615;-69
2022/04/09 14:37:04;;;;;;;5.43;1.93;;;;;;;12.24;42.73;99234.00;10449836;28;20325;-66
2022/04/09 14:42:08;;;;;;;7.57;1.80;;;;;;;13.13;38.86;99235.97;10450459;28;20228;-66
2022/04/09 14:47:11;;;;;;;50.73;24.43;;;;;;;12.32;41.77;99256.25;10467167;28;20608;-67
2022/04/09 14:52:16;;;;;;;5.33;1.87;;;;;;;12.12;40.75;99243.09;10467565;28;20303;-65
2022/04/09 14:57:20;;;;;;;4.47;1.63;;;;;;;12.57;39.92;99264.91;10466272;28;20245;-65
2022/04/09 15:02:23;;;;;;;6.47;1.67;;;;;;;12.23;40.76;99255.75;10448769;28;20559;-68
2022/04/09 15:07:30;;;;;;;6.13;1.93;;;;;;;11.69;41.92;99268.81;10449046;28;20639;-69
2022/04/09 15:12:34;;;;;;;5.77;1.50;;;;;;;11.20;42.79;99273.81;10448618;28;20622;-66
2022/04/09 15:17:37;;;;;;;7.17;1.83;;;;;;;10.98;43.15;99271.00;10466267;28;20274;-65
2022/04/09 15:22:45;;;;;;;8.50;3.30;;;;;;;10.86;43.39;99281.72;10465287;28;20220;-65
2022/04/09 15:27:48;;;;;;;5.77;1.83;;;;;;;11.10;42.34;99277.56;10465627;28;20274;-68
2022/04/09 15:32:51;;;;;;;3.33;1.40;;;;;;;11.30;43.44;99286.44;10464848;28;20221;-70
2022/04/09 15:37:56;;;;;;;8.10;2.03;;;;;;;11.03;43.21;99283.81;10464852;28;20213;-65
2022/04/09 15:43:01;;;;;;;6.40;1.63;;;;;;;11.07;45.13;99290.63;10464421;28;20239;-64
2022/04/09 15:48:04;;;;;;;3.43;1.20;;;;;;;10.91;44.21;99298.03;10463627;28;20221;-65
2022/04/09 15:53:11;;;;;;;7.40;2.83;;;;;;;11.16;43.75;99293.84;10464182;28;20308;-67
2022/04/09 15:58:15;;;;;;;5.23;1.57;;;;;;;11.55;43.41;99309.94;10464751;28;20239;-68
2022/04/09 16:03:21;;;;;;;4.40;1.50;;;;;;;11.60;43.23;99314.13;10464568;28;20229;-65
2022/04/09 16:08:26;;;;;;;5.23;1.50;;;;;;;11.63;42.95;99311.41;10463803;28;20621;-66
2022/04/09 16:13:29;;;;;;;6.43;1.70;;;;;;;11.47;43.71;99311.94;10463928;28;20311;-66
2022/04/09 16:18:33;;;;;;;4.80;1.40;;;;;;;11.19;43.75;99313.66;10463689;28;20227;-66
2022/04/09 16:23:39;;;;;;;7.23;2.00;;;;;;;11.05;43.60;99310.59;10445816;28;20240;-68
2022/04/09 16:28:42;;;;;;;4.53;1.57;;;;;;;10.76;42.64;99318.34;10463217;28;20213;-67
2022/04/09 16:33:45;;;;;;;4.33;1.60;;;;;;;10.49;43.67;99330.34;10463189;28;20224;-68
2022/04/09 16:38:50;;;;;;;5.50;1.60;;;;;;;10.20;43.85;99341.44;10462335;28;20292;-68
2022/04/09 16:43:53;;;;;;;5.17;1.50;;;;;;;10.20;43.68;99338.84;10462473;28;20236;-65
2022/04/09 16:48:56;;;;;;;4.67;1.40;;;;;;;10.10;44.52;99350.34;10462061;28;20295;-65
2022/04/09 16:54:01;;;;;;;4.70;1.70;;;;;;;9.86;45.71;99355.22;10465085;28;20223;-63
2022/04/09 16:59:05;;;;;;;5.20;2.07;;;;;;;9.62;45.26;99363.56;10481934;28;20213;-62
2022/04/09 17:04:09;;;;;;;4.60;1.47;;;;;;;9.48;46.30;99376.81;10461422;28;20282;-60
2022/04/09 17:09:14;;;;;;;7.30;2.00;;;;;;;9.51;47.21;99376.75;10458812;28;20227;-69
2022/04/09 17:14:17;;;;;;;5.40;2.30;;;;;;;9.39;47.52;99378.75;10108864;28;10000571;-68
2022/04/09 17:19:21;;;;;;;6.67;2.10;;;;;;;9.31;47.05;99384.94;10440653;28;20225;-68
2022/04/09 17:24:26;;;;;;;5.57;1.70;;;;;;;9.34;46.05;99400.41;10472848;28;20224;-67
2022/04/09 17:29:29;;;;;;;5.93;1.73;;;;;;;9.22;46.88;99411.03;10457184;28;20553;-68
2022/04/09 17:34:34;;;;;;;6.10;1.83;;;;;;;9.12;47.12;99413.81;10457126;28;20234;-69
2022/04/09 17:39:42;;;;;;;6.93;1.73;;;;;;;9.05;47.22;99435.53;10457570;28;20217;-67
2022/04/09 17:44:45;;;;;;;6.83;2.00;;;;;;;8.98;47.36;99431.34;10439417;28;20358;-68
2022/04/09 17:49:49;;;;;;;5.70;1.90;;;;;;;8.79;47.35;99436.00;10457074;28;20208;-67
2022/04/09 17:54:54;;;;;;;7.73;2.00;;;;;;;8.73;47.92;99445.59;10456233;28;20621;-64
2022/04/09 17:59:57;;;;;;;6.47;1.97;;;;;;;8.70;48.43;99464.59;10456446;28;20594;-68
2022/04/09 18:05:00;;;;;;;7.17;2.30;;;;;;;8.62;48.54;99469.06;10456946;28;20221;-65
2022/04/09 18:10:08;;;;;;;6.50;2.27;;;;;;;8.53;48.90;99469.22;10454085;28;20728;-68
2022/04/09 18:15:12;;;;;;;7.60;3.87;;;;;;;8.59;49.54;99481.19;10455705;28;20323;-65
2022/04/09 18:20:17;;;;;;;6.10;2.37;;;;;;;8.59;49.98;99489.81;10458983;28;20684;-64
2022/04/09 18:25:21;;;;;;;16.83;6.70;;;;;;;8.59;50.28;99495.00;10458362;28;20290;-68
2022/04/09 18:30:25;;;;;;;12.73;3.30;;;;;;;8.54;50.76;99496.75;10458859;28;20223;-66
2022/04/09 18:35:28;;;;;;;6.30;2.80;;;;;;;8.45;52.07;99509.00;10460148;28;20728;-66
2022/04/09 18:40:38;;;;;;;12.07;2.63;;;;;;;8.31;51.93;99516.97;10459155;28;20216;-67
2022/04/09 18:45:42;;;;;;;10.97;3.93;;;;;;;8.29;51.96;99523.88;10458622;28;20234;-66
2022/04/09 18:50:45;;;;;;;10.80;4.37;;;;;;;8.18;52.47;99523.13;10458278;28;20199;-66
2022/04/09 18:55:50;;;;;;;10.60;4.00;;;;;;;8.10;52.92;99520.69;10458619;28;20193;-67
2022/04/09 19:00:54;;;;;;;8.30;3.07;;;;;;;8.10;52.85;99506.88;10459918;28;20700;-64
2022/04/09 19:05:59;;;;;;;8.90;3.40;;;;;;;8.02;53.54;99519.06;10455228;28;20216;-67
2022/04/09 19:11:03;;;;;;;9.53;4.10;;;;;;;7.93;53.75;99511.44;10454689;28;20228;-66
2022/04/09 19:16:06;;;;;;;12.57;4.63;;;;;;;7.87;53.59;99521.81;10455076;28;20207;-65
2022/04/09 19:21:10;;;;;;;8.17;3.47;;;;;;;7.82;53.91;99521.03;10459846;28;20288;-67
2022/04/09 19:26:15;;;;;;;10.37;3.43;;;;;;;7.76;54.38;99527.16;10462339;28;20632;-68
2022/04/09 19:31:18;;;;;;;9.23;3.47;;;;;;;7.78;54.81;99516.81;10465919;28;20296;-66
2022/04/09 19:36:22;;;;;;;11.13;4.37;;;;;;;7.73;55.79;99528.91;10465239;28;20193;-69
2022/04/09 19:41:26;;;;;;;10.63;4.10;;;;;;;7.66;55.11;99528.13;10464838;28;20224;-65
2022/04/09 19:46:30;;;;;;;9.40;4.43;;;;;;;7.63;55.31;99528.16;10465201;28;20276;-66
2022/04/09 19:51:33;;;;;;;12.60;4.03;;;;;;;7.45;55.89;99536.13;10464305;28;20598;-66
2022/04/09 19:56:38;;;;;;;8.33;4.10;;;;;;;7.42;56.55;99538.72;10464857;28;20209;-66
2022/04/09 20:01:41;;;;;;;12.73;5.43;;;;;;;7.39;55.97;99537.91;10463750;28;20232;-65
2022/04/09 20:06:45;;;;;;;11.97;5.00;;;;;;;7.30;56.43;99538.03;10463952;28;20221;-66
2022/04/09 20:11:49;;;;;;;13.43;5.80;;;;;;;7.31;56.19;99534.56;10463336;28;20232;-67
2022/04/09 20:16:53;;;;;;;10.43;4.83;;;;;;;7.25;56.18;99535.47;10460451;28;20217;-66
2022/04/09 20:21:56;;;;;;;16.63;5.13;;;;;;;7.24;55.80;99535.47;10460278;28;20220;-67
2022/04/09 20:27:04;;;;;;;10.97;4.63;;;;;;;7.22;55.09;99545.81;10460884;28;20213;-66
2022/04/09 20:32:10;;;;;;;11.00;5.40;;;;;;;7.13;55.13;99556.22;10459247;28;20220;-67
2022/04/09 20:37:13;;;;;;;11.70;5.07;;;;;;;7.04;56.60;99557.16;10458913;28;20216;-66
2022/04/09 20:42:18;;;;;;;13.13;5.47;;;;;;;7.03;57.55;99562.34;10458479;28;20618;-66
2022/04/09 20:47:23;;;;;;;13.53;5.80;;;;;;;6.98;55.92;99566.69;10457466;28;20204;-66
2022/04/09 20:52:27;;;;;;;12.73;5.43;;;;;;;6.89;58.68;99571.91;10455867;28;20216;-66
2022/04/09 20:57:31;;;;;;;13.20;5.90;;;;;;;6.85;57.26;99581.41;10458239;28;20214;-67
2022/04/09 21:02:35;;;;;;;10.63;6.03;;;;;;;6.83;57.41;99584.88;10455517;28;20231;-63
2022/04/09 21:07:38;;;;;;;14.73;5.57;;;;;;;6.58;59.50;99602.22;10457150;28;20209;-65
2022/04/09 21:12:43;;;;;;;11.67;5.27;;;;;;;6.51;59.54;99617.72;10456837;28;20232;-60
2022/04/09 21:17:46;;;;;;;12.80;5.63;;;;;;;6.40;58.62;99628.09;10455234;28;20209;-61
2022/04/09 21:22:50;;;;;;;17.97;6.83;;;;;;;6.49;58.42;99630.63;10457771;28;20233;-61
2022/04/09 21:27:55;;;;;;;14.17;6.33;;;;;;;6.57;57.75;99641.78;10458228;28;20220;-62
2022/04/09 21:33:04;;;;;;;14.30;6.70;;;;;;;6.47;58.71;99640.09;10457772;28;20213;-59
2022/04/09 21:38:07;;;;;;;16.10;7.20;;;;;;;6.36;58.70;99654.78;10440128;28;20327;-61
2022/04/09 21:43:12;;;;;;;13.40;5.87;;;;;;;6.28;58.91;99665.97;10455938;28;20844;-63
2022/04/09 21:48:17;;;;;;;14.70;6.50;;;;;;;6.19;60.81;99668.56;10456920;28;20225;-65
2022/04/09 21:53:21;;;;;;;17.33;7.23;;;;;;;6.16;61.09;99679.75;10456684;28;20680;-66
2022/04/09 21:58:26;;;;;;;13.13;6.47;;;;;;;6.07;61.72;99684.94;10456729;28;20342;-59
2022/04/09 22:03:30;;;;;;;13.57;6.07;;;;;;;6.05;62.72;99696.97;10456863;28;20575;-63
2022/04/09 22:08:33;;;;;;;14.23;5.50;;;;;;;6.17;63.74;99693.47;10459592;28;20239;-65
2022/04/09 22:13:38;;;;;;;12.87;6.33;;;;;;;6.29;63.26;99704.63;10459262;28;20232;-70
2022/04/09 22:18:41;;;;;;;12.27;5.57;;;;;;;6.34;63.81;99700.28;10459867;28;20223;-67
2022/04/09 22:23:45;;;;;;;12.23;5.50;;;;;;;6.36;66.19;99711.47;10455090;28;20445;-69
2022/04/09 22:28:50;;;;;;;12.00;5.23;;;;;;;6.18;67.84;99706.34;10455917;28;20222;-66
2022/04/09 22:33:53;;;;;;;10.63;4.27;;;;;;;6.04;69.46;99708.09;10456574;28;20224;-66
2022/04/09 22:38:57;;;;;;;9.17;4.40;;;;;;;6.11;70.54;99701.25;10455771;28;20231;-64
2022/04/09 22:44:01;;;;;;;7.77;3.20;;;;;;;6.09;71.64;99714.09;10455397;28;20224;-66
2022/04/09 22:49:05;;;;;;;10.63;3.63;;;;;;;6.10;73.18;99708.09;10455270;28;20675;-68
2022/04/09 22:54:08;;;;;;;9.93;3.40;;;;;;;6.07;74.55;99713.28;10456787;28;20216;-67
2022/04/09 22:59:13;;;;;;;5.93;2.33;;;;;;;5.77;78.67;99726.16;10463433;28;20217;-67
2022/04/09 23:04:21;;;;;;;7.27;2.77;;;;;;;5.80;79.89;99736.44;10463629;28;20224;-67
2022/04/09 23:09:25;;;;;;;8.50;2.70;;;;;;;5.66;82.74;99746.75;10464234;28;20281;-65
2022/04/09 23:14:29;;;;;;;6.17;3.00;;;;;;;5.51;84.41;99735.59;10463478;28;20320;-67
2022/04/09 23:19:33;;;;;;;7.47;2.60;;;;;;;5.54;84.66;99738.22;10466211;28;20300;-66
2022/04/09 23:24:36;;;;;;;6.00;2.30;;;;;;;5.39;86.20;99749.34;10466031;28;20246;-65
2022/04/09 23:29:41;;;;;;;5.77;2.57;;;;;;;5.24;87.75;99757.06;10465618;28;20693;-66
2022/04/09 23:34:44;;;;;;;6.87;2.40;;;;;;;5.24;88.21;99751.03;10465317;28;20556;-67
2022/04/09 23:39:47;;;;;;;7.93;2.53;;;;;;;5.14;89.02;99767.31;10465433;28;20213;-66